Visit the IPS Meteostar Home Page 2IPSM Phoenix Sky Harbor International Airport FORECAST

Phoenix, Arizona

2 miles away at Phoenix Sky Harbor International Airport 22:51 GMT

Weather:

Partly Cloudy

Wind:

W 8 mph

Temperature:

92 ° F

Pressure:

29.75

Dew Point:

26 ° F

Relative Humidity:

9

Feels Like:

88 ° F

Visibility:

10 miles


Aviation Observations:

KPHX 222251Z 27007KT 10SM FEW120 SCT180 SCT250 33/M03 A2978 RMK AO2 SLP068 VIRGA T03331033 =

National Weather Service Forecast:
Greater Phoenix Area


Visit the IPS Meteostar Home Page